Time;durP1;ratioP1;P1;durP2;ratioP2;P2;SDS_P1;SDS_P2;PMS_P1;PMS_P2;Temp;Humidity;BMP_temperature;BMP_pressure;BME280_temperature;BME280_humidity;BME280_pressure;Samples;Min_cycle;Max_cycle;Signal;HPM_P1;HPM_P2
2022/02/22 00:01:43;;;;;;;10.90;1.98;;;6.70;65.70;;;;;;4891995;29;20218;-76
2022/02/22 00:04:10;;;;;;;6.55;1.90;;;6.70;65.70;;;;;;4894063;29;20316;-80
2022/02/22 00:30:15;;;;;;;6.18;2.00;;;6.70;66.40;;;;;;4888202;29;20256;-77
2022/02/22 00:32:42;;;;;;;4.78;2.17;;;6.70;66.60;;;;;;4887023;29;20290;-78
2022/02/22 00:35:11;;;;;;;9.70;2.20;;;6.70;66.50;;;;;;4887698;29;20233;-78
2022/02/22 00:37:38;;;;;;;5.78;1.70;;;6.70;66.10;;;;;;4884825;29;20269;-77
2022/02/22 00:40:06;;;;;;;7.72;2.60;;;6.70;65.70;;;;;;4895194;29;20241;-77
2022/02/22 00:42:33;;;;;;;5.60;2.17;;;6.80;65.80;;;;;;4900596;29;20286;-77
2022/02/22 00:45:01;;;;;;;5.53;1.65;;;6.80;65.80;;;;;;4886873;29;20579;-76
2022/02/22 00:47:30;;;;;;;6.72;1.45;;;6.80;65.80;;;;;;4883213;29;20218;-77
2022/02/22 00:49:56;;;;;;;7.07;2.70;;;6.80;65.80;;;;;;4881794;29;20615;-77
2022/02/22 00:52:23;;;;;;;1.95;1.40;;;6.80;65.80;;;;;;4883588;29;20320;-78
2022/02/22 00:54:50;;;;;;;6.68;2.60;;;6.80;65.80;;;;;;4885835;29;20212;-77
2022/02/22 00:57:17;;;;;;;4.93;2.35;;;6.80;65.80;;;;;;4885652;29;20259;-77
2022/02/22 00:59:44;;;;;;;5.03;1.90;;;6.80;65.80;;;;;;4885325;29;20710;-78
2022/02/22 01:02:11;;;;;;;11.65;2.72;;;6.80;65.90;;;;;;4884852;29;20210;-78
2022/02/22 01:04:40;;;;;;;8.65;2.55;;;6.70;65.70;;;;;;4884567;29;20917;-77
2022/02/22 01:07:07;;;;;;;7.80;2.45;;;6.70;65.70;;;;;;4883653;29;20227;-77
2022/02/22 01:09:35;;;;;;;4.65;1.52;;;6.70;65.70;;;;;;4883895;29;20238;-77
2022/02/22 01:12:03;;;;;;;7.10;1.63;;;6.70;65.70;;;;;;4884040;29;20305;-78
2022/02/22 01:14:30;;;;;;;5.60;1.85;;;6.70;66.10;;;;;;4884787;29;20213;-77
2022/02/22 01:16:59;;;;;;;8.55;2.10;;;6.80;66.20;;;;;;4885103;29;20225;-78
2022/02/22 01:19:26;;;;;;;2.58;1.65;;;6.70;65.70;;;;;;4885845;29;20218;-78
2022/02/22 01:21:54;;;;;;;5.47;1.75;;;6.80;65.80;;;;;;4887003;29;20674;-78
2022/02/22 01:24:28;;;;;;;6.85;1.95;;;6.80;65.80;;;;;;4890689;29;20233;-77
2022/02/22 01:26:55;;;;;;;6.00;1.70;;;6.80;65.90;;;;;;4886869;29;20245;-79
2022/02/22 01:29:25;;;;;;;6.13;2.05;;;6.80;65.80;;;;;;4883750;29;20787;-78
2022/02/22 01:31:52;;;;;;;8.75;2.15;;;6.70;65.70;;;;;;4883066;29;20646;-77
2022/02/22 01:34:19;;;;;;;7.00;1.70;;;6.70;65.70;;;;;;4884311;29;20690;-77
2022/02/22 01:36:46;;;;;;;3.17;1.80;;;6.80;65.80;;;;;;4884906;29;20244;-78
2022/02/22 01:39:14;;;;;;;6.05;2.10;;;6.80;65.90;;;;;;4886906;29;20654;-77
2022/02/22 01:41:44;;;;;;;5.78;1.90;;;6.90;65.90;;;;;;4894662;29;20221;-77
2022/02/22 01:44:12;;;;;;;4.00;1.75;;;6.90;64.90;;;;;;4899351;29;20229;-77
2022/02/22 01:46:39;;;;;;;6.45;2.15;;;6.80;65.00;;;;;;4896933;29;20232;-78
2022/02/22 01:49:06;;;;;;;4.60;1.73;;;6.80;64.90;;;;;;4892088;29;20218;-78
2022/02/22 01:51:33;;;;;;;6.28;2.38;;;6.80;65.10;;;;;;4895833;29;20233;-76
2022/02/22 01:54:00;;;;;;;6.05;2.08;;;6.70;65.30;;;;;;4893365;29;20211;-76
2022/02/22 01:56:29;;;;;;;2.75;2.08;;;6.70;65.00;;;;;;4888562;29;20301;-78
2022/02/22 01:58:56;;;;;;;4.20;1.35;;;6.70;65.00;;;;;;4887155;29;20225;-77
2022/02/22 02:01:23;;;;;;;3.38;1.30;;;6.60;65.10;;;;;;4898076;29;20222;-77
2022/02/22 02:03:53;;;;;;;7.65;1.95;;;6.50;65.60;;;;;;4898206;29;20244;-78
2022/02/22 02:06:20;;;;;;;8.13;1.92;;;6.50;65.60;;;;;;4881748;29;20213;-77
2022/02/22 02:08:47;;;;;;;3.15;1.40;;;6.40;66.20;;;;;;4884457;29;20228;-77
2022/02/22 02:11:14;;;;;;;6.80;2.13;;;6.50;65.60;;;;;;4884447;29;20238;-78
2022/02/22 02:13:42;;;;;;;8.55;2.35;;;6.50;65.60;;;;;;4884717;29;20553;-77
2022/02/22 02:16:09;;;;;;;3.33;1.50;;;6.40;65.50;;;;;;4880598;29;20259;-78
2022/02/22 02:18:36;;;;;;;3.30;1.70;;;6.50;65.60;;;;;;4880437;29;20304;-78
2022/02/22 02:21:03;;;;;;;7.65;1.73;;;6.40;66.00;;;;;;4880838;29;20365;-77
2022/02/22 02:23:31;;;;;;;7.60;1.90;;;6.40;66.10;;;;;;4880534;29;20598;-77
2022/02/22 02:25:58;;;;;;;3.92;1.33;;;6.40;66.10;;;;;;4881160;29;20213;-77
2022/02/22 02:28:25;;;;;;;8.93;2.28;;;6.40;66.70;;;;;;4882708;29;20210;-77
2022/02/22 02:30:52;;;;;;;3.90;1.75;;;6.30;66.60;;;;;;4883651;29;20840;-78
2022/02/22 02:33:19;;;;;;;4.30;1.83;;;6.40;67.00;;;;;;4883327;29;20213;-77
2022/02/22 02:35:46;;;;;;;3.83;2.40;;;6.30;66.90;;;;;;4882434;29;20248;-77
2022/02/22 02:38:13;;;;;;;9.02;2.30;;;6.20;67.50;;;;;;4882701;29;20221;-77
2022/02/22 02:40:41;;;;;;;6.53;1.95;;;6.20;67.50;;;;;;4881098;29;20237;-78
2022/02/22 02:43:08;;;;;;;6.03;1.63;;;6.10;67.90;;;;;;4880693;29;20288;-77
2022/02/22 02:45:35;;;;;;;6.85;1.63;;;6.10;68.30;;;;;;4879756;29;20209;-78
2022/02/22 02:48:02;;;;;;;5.28;2.10;;;6.10;68.70;;;;;;4879112;29;20237;-78
2022/02/22 02:50:29;;;;;;;5.72;2.10;;;6.00;69.10;;;;;;4879142;29;20239;-76
2022/02/22 02:52:57;;;;;;;6.15;2.15;;;6.00;69.70;;;;;;4879727;29;20221;-77
2022/02/22 02:55:24;;;;;;;4.75;1.80;;;6.00;70.10;;;;;;4885922;29;20218;-77
2022/02/22 02:57:52;;;;;;;5.90;2.10;;;6.00;70.50;;;;;;4891054;29;20233;-79
2022/02/22 03:00:19;;;;;;;5.88;1.95;;;5.90;71.00;;;;;;4883040;29;20331;-78
2022/02/22 03:02:46;;;;;;;4.78;1.50;;;5.90;71.60;;;;;;4880164;29;20243;-78
2022/02/22 03:05:13;;;;;;;3.65;1.98;;;5.80;71.70;;;;;;4879828;29;20738;-78
2022/02/22 03:07:40;;;;;;;3.05;2.10;;;5.80;72.70;;;;;;4883039;29;20300;-77
2022/02/22 03:10:08;;;;;;;4.65;1.58;;;5.80;73.70;;;;;;4887627;29;20290;-77
2022/02/22 03:12:35;;;;;;;3.83;1.75;;;5.80;73.70;;;;;;4892176;29;20214;-77
2022/02/22 03:15:03;;;;;;;4.55;1.80;;;5.80;73.70;;;;;;4896803;29;20213;-77
2022/02/22 03:17:30;;;;;;;3.65;1.70;;;5.80;73.70;;;;;;4898221;29;20277;-77
2022/02/22 03:19:57;;;;;;;5.85;2.20;;;5.80;73.70;;;;;;4897108;29;20599;-78
2022/02/22 03:22:24;;;;;;;4.30;1.77;;;5.90;74.40;;;;;;4894891;29;20249;-77
2022/02/22 03:24:51;;;;;;;4.22;1.63;;;5.90;73.80;;;;;;4899888;29;20610;-76
2022/02/22 03:27:18;;;;;;;2.40;1.70;;;5.90;74.40;;;;;;4895022;29;20660;-77
2022/02/22 03:29:45;;;;;;;3.00;1.77;;;5.90;73.80;;;;;;4899989;29;20260;-78
2022/02/22 03:32:13;;;;;;;4.20;1.70;;;5.90;73.80;;;;;;4890541;29;20217;-78
2022/02/22 03:34:40;;;;;;;4.72;1.90;;;6.00;73.90;;;;;;4886947;29;20242;-78
2022/02/22 03:37:10;;;;;;;4.72;1.80;;;6.00;73.90;;;;;;4885864;29;20243;-76
2022/02/22 03:39:36;;;;;;;4.88;1.83;;;5.90;73.80;;;;;;4886423;29;20257;-77
2022/02/22 03:42:04;;;;;;;7.95;2.70;;;5.90;73.80;;;;;;4886712;29;20244;-78
2022/02/22 03:44:31;;;;;;;12.00;2.20;;;6.00;74.60;;;;;;4886988;29;20602;-77
2022/02/22 03:46:58;;;;;;;5.80;2.20;;;5.90;74.90;;;;;;4888510;29;20303;-78
2022/02/22 03:49:26;;;;;;;4.15;2.10;;;6.00;75.00;;;;;;4894102;29;20280;-76
2022/02/22 03:51:53;;;;;;;4.30;2.20;;;6.00;74.90;;;;;;4891436;29;20419;-78
2022/02/22 03:54:20;;;;;;;6.82;2.60;;;6.00;74.70;;;;;;4886582;29;20631;-77
2022/02/22 03:56:47;;;;;;;2.75;1.80;;;6.00;74.50;;;;;;4886154;29;20216;-77
2022/02/22 03:59:14;;;;;;;4.93;1.90;;;6.00;75.00;;;;;;4886590;29;20303;-77
2022/02/22 04:01:41;;;;;;;3.92;1.92;;;5.90;75.20;;;;;;4886577;29;20217;-77
2022/02/22 04:04:08;;;;;;;3.28;1.77;;;5.90;76.10;;;;;;4886527;29;20224;-77
2022/02/22 04:06:36;;;;;;;4.57;2.50;;;5.80;76.40;;;;;;4888834;29;20241;-76
2022/02/22 04:09:04;;;;;;;7.22;2.65;;;5.90;76.80;;;;;;4891768;29;20248;-77
2022/02/22 04:11:31;;;;;;;4.82;1.83;;;5.90;76.30;;;;;;4891335;29;20606;-78
2022/02/22 04:13:58;;;;;;;4.05;1.90;;;5.90;75.50;;;;;;4890885;29;20214;-78
2022/02/22 04:16:25;;;;;;;7.30;2.53;;;6.00;75.50;;;;;;4894990;29;20238;-76
2022/02/22 04:18:52;;;;;;;5.20;2.60;;;5.90;75.40;;;;;;4895216;29;20250;-77
2022/02/22 04:21:19;;;;;;;3.72;2.30;;;5.90;75.50;;;;;;4894003;29;20274;-79
2022/02/22 04:23:47;;;;;;;3.97;2.10;;;5.80;75.90;;;;;;4889232;29;20216;-78
2022/02/22 04:26:14;;;;;;;4.28;2.13;;;5.70;76.10;;;;;;4887674;29;20276;-78
2022/02/22 04:28:41;;;;;;;6.47;2.30;;;5.70;76.90;;;;;;4888323;29;20268;-79
2022/02/22 04:31:08;;;;;;;4.38;1.90;;;5.70;76.80;;;;;;4897010;23;20272;-74
2022/02/22 04:33:35;;;;;;;4.68;2.10;;;5.60;77.00;;;;;;4881565;29;20244;-72
2022/02/22 04:36:02;;;;;;;2.75;2.10;;;5.60;77.70;;;;;;4880947;29;20291;-72
2022/02/22 04:38:29;;;;;;;4.65;2.80;;;5.50;77.80;;;;;;4881365;29;20220;-73
2022/02/22 04:40:57;;;;;;;4.40;2.38;;;5.50;77.80;;;;;;4883204;29;20254;-72
2022/02/22 04:43:24;;;;;;;9.85;2.25;;;5.40;78.50;;;;;;4880995;29;20215;-73
2022/02/22 04:45:51;;;;;;;7.43;1.92;;;5.40;78.90;;;;;;4880779;29;20652;-73
2022/02/22 04:48:18;;;;;;;3.67;1.88;;;5.40;79.80;;;;;;4880860;29;20217;-72
2022/02/22 04:50:45;;;;;;;3.25;2.03;;;5.40;80.30;;;;;;4880421;29;20228;-72
2022/02/22 04:53:12;;;;;;;5.85;2.40;;;5.40;80.00;;;;;;4880478;29;20220;-73
2022/02/22 04:55:39;;;;;;;6.57;3.03;;;5.40;79.80;;;;;;4880263;29;20563;-73
2022/02/22 04:58:07;;;;;;;4.35;2.42;;;5.30;80.30;;;;;;4880790;29;20212;-73
2022/02/22 05:00:34;;;;;;;3.40;2.33;;;5.30;81.10;;;;;;4882187;29;20319;-73
2022/02/22 05:03:01;;;;;;;7.95;2.50;;;5.30;81.60;;;;;;4881890;29;20252;-73
2022/02/22 05:05:28;;;;;;;4.78;2.20;;;5.30;81.50;;;;;;4881753;29;20290;-72
2022/02/22 05:07:55;;;;;;;5.88;2.63;;;5.30;81.60;;;;;;4882233;29;20224;-71
2022/02/22 05:10:22;;;;;;;4.07;1.80;;;5.30;81.70;;;;;;4881448;29;20329;-73
2022/02/22 05:12:49;;;;;;;8.05;2.60;;;5.30;81.70;;;;;;4882843;29;20307;-73
2022/02/22 05:15:17;;;;;;;7.28;3.10;;;5.20;81.60;;;;;;4881369;29;20212;-73
2022/02/22 05:17:44;;;;;;;4.75;2.55;;;5.40;81.80;;;;;;4884789;29;20228;-72
2022/02/22 05:20:11;;;;;;;9.00;3.00;;;5.40;81.70;;;;;;4884899;29;20219;-73
2022/02/22 05:22:40;;;;;;;7.22;2.35;;;5.40;81.20;;;;;;4892115;29;20245;-73
2022/02/22 05:25:08;;;;;;;2.63;1.67;;;5.40;80.70;;;;;;4895086;29;20232;-72
2022/02/22 05:27:35;;;;;;;9.30;2.80;;;5.40;81.10;;;;;;4888029;29;20296;-73
2022/02/22 05:30:02;;;;;;;8.75;2.55;;;5.40;80.50;;;;;;4885409;29;20296;-73
2022/02/22 05:32:30;;;;;;;7.20;2.90;;;5.40;80.80;;;;;;4881018;29;20216;-73
2022/02/22 05:34:58;;;;;;;7.97;2.67;;;5.40;81.50;;;;;;4882700;29;20212;-73
2022/02/22 05:37:25;;;;;;;8.63;2.65;;;5.30;81.60;;;;;;4897245;29;20241;-73
2022/02/22 05:39:54;;;;;;;4.07;2.33;;;5.20;81.60;;;;;;4894372;29;20223;-72
2022/02/22 05:42:21;;;;;;;7.43;2.97;;;5.20;82.80;;;;;;4896424;29;20216;-72
2022/02/22 05:44:48;;;;;;;5.95;2.55;;;5.20;83.70;;;;;;4890454;29;20856;-72
2022/02/22 05:47:15;;;;;;;8.85;2.95;;;5.10;84.80;;;;;;4881371;29;20227;-73
2022/02/22 05:49:43;;;;;;;8.38;2.90;;;5.10;85.60;;;;;;4879775;29;20219;-72
2022/02/22 05:52:11;;;;;;;6.32;2.90;;;5.10;85.70;;;;;;4878914;29;20240;-73
2022/02/22 05:54:38;;;;;;;5.00;2.83;;;5.00;85.50;;;;;;4879185;29;20213;-72
2022/02/22 05:57:05;;;;;;;8.27;3.08;;;5.00;86.90;;;;;;4879092;29;20216;-72
2022/02/22 05:59:32;;;;;;;6.10;3.20;;;5.00;87.40;;;;;;4878788;29;20708;-72
2022/02/22 06:01:59;;;;;;;7.75;3.15;;;4.90;88.10;;;;;;4879168;29;20244;-72
2022/02/22 06:04:26;;;;;;;6.80;2.92;;;4.90;89.50;;;;;;4881041;29;22180;-73
2022/02/22 06:06:54;;;;;;;12.35;3.20;;;4.90;89.80;;;;;;4881143;29;20217;-72
2022/02/22 06:09:22;;;;;;;15.55;3.92;;;4.90;90.00;;;;;;4881851;29;20244;-72
2022/02/22 06:11:49;;;;;;;9.05;4.05;;;5.00;90.30;;;;;;4880861;29;20731;-73
2022/02/22 06:14:16;;;;;;;9.45;3.70;;;5.00;90.30;;;;;;4879865;29;20221;-73
2022/02/22 06:16:43;;;;;;;6.10;3.50;;;5.00;89.90;;;;;;4879062;29;20216;-72
2022/02/22 06:19:10;;;;;;;8.50;4.30;;;4.90;89.60;;;;;;4879878;29;20216;-72
2022/02/22 06:21:37;;;;;;;10.30;3.10;;;4.80;89.90;;;;;;4878761;29;20241;-75
2022/02/22 06:24:05;;;;;;;8.43;4.00;;;4.80;90.40;;;;;;4879208;29;20550;-73
2022/02/22 06:26:32;;;;;;;7.80;3.25;;;4.80;90.70;;;;;;4882408;29;20293;-73
2022/02/22 06:29:00;;;;;;;7.93;3.80;;;4.80;91.20;;;;;;4883246;29;20245;-71
2022/02/22 06:31:27;;;;;;;7.60;3.20;;;4.90;91.30;;;;;;4882476;29;20277;-73
2022/02/22 06:33:54;;;;;;;12.55;3.55;;;4.90;91.30;;;;;;4878862;29;20757;-73
2022/02/22 06:36:21;;;;;;;19.45;4.50;;;4.80;90.80;;;;;;4879948;29;20223;-72
2022/02/22 06:38:48;;;;;;;10.98;3.35;;;4.80;90.90;;;;;;4880321;29;20280;-72
2022/02/22 06:41:16;;;;;;;8.82;3.97;;;4.80;91.20;;;;;;4880688;29;20232;-75
2022/02/22 06:43:43;;;;;;;5.53;3.58;;;4.80;91.00;;;;;;4882362;29;20242;-75
2022/02/22 06:46:10;;;;;;;12.15;5.07;;;4.80;91.50;;;;;;4888207;29;20438;-75
2022/02/22 06:48:36;;;;;;;8.07;3.45;;;4.80;91.50;;;;;;4889550;29;20214;-72
2022/02/22 06:51:03;;;;;;;11.32;3.83;;;4.80;91.60;;;;;;4885028;29;20233;-73
2022/02/22 06:53:30;;;;;;;8.10;4.43;;;4.80;91.60;;;;;;4883631;29;20252;-72
2022/02/22 06:55:57;;;;;;;12.13;4.60;;;4.80;91.60;;;;;;4883552;29;20215;-73
2022/02/22 06:58:25;;;;;;;12.23;4.25;;;4.80;92.00;;;;;;4883303;29;20300;-72
2022/02/22 07:00:52;;;;;;;10.80;3.58;;;4.80;92.00;;;;;;4882789;29;20251;-74
2022/02/22 07:03:19;;;;;;;9.35;3.58;;;4.90;92.20;;;;;;4883219;29;20689;-73
2022/02/22 07:05:46;;;;;;;9.90;3.95;;;4.90;92.10;;;;;;4883905;29;20236;-73
2022/02/22 07:08:13;;;;;;;10.63;4.25;;;5.00;91.80;;;;;;4889366;29;20306;-73
2022/02/22 07:10:40;;;;;;;10.75;3.38;;;5.00;91.60;;;;;;4887523;29;20272;-73
2022/02/22 07:13:07;;;;;;;9.20;4.95;;;5.10;91.90;;;;;;4888266;29;20209;-73
2022/02/22 07:15:35;;;;;;;9.20;3.10;;;5.10;91.30;;;;;;4889648;29;20621;-73
2022/02/22 07:18:06;;;;;;;9.13;3.80;;;5.20;91.20;;;;;;4886019;29;20210;-73
2022/02/22 07:20:33;;;;;;;9.63;2.70;;;5.20;90.70;;;;;;4890500;29;20312;-73
2022/02/22 07:23:00;;;;;;;10.65;3.70;;;5.30;90.10;;;;;;4891766;29;20217;-73
2022/02/22 07:25:29;;;;;;;8.68;3.33;;;5.30;89.70;;;;;;4882825;29;20232;-76
2022/02/22 07:27:57;;;;;;;5.05;3.45;;;5.40;88.80;;;;;;4882146;29;20202;-77
2022/02/22 07:30:25;;;;;;;11.38;3.20;;;5.50;87.90;;;;;;4882922;29;20244;-76
2022/02/22 07:32:56;;;;;;;12.20;3.75;;;5.50;87.40;;;;;;4883025;29;20265;-76
2022/02/22 07:35:24;;;;;;;7.10;3.60;;;5.70;86.10;;;;;;4882496;29;20229;-76
2022/02/22 07:37:52;;;;;;;8.80;3.38;;;5.70;84.60;;;;;;4883510;29;20709;-76
2022/02/22 07:40:20;;;;;;;6.82;3.28;;;5.90;84.00;;;;;;4882350;29;20648;-74
2022/02/22 07:42:48;;;;;;;8.05;2.83;;;6.10;82.70;;;;;;4881747;29;20217;-78
2022/02/22 07:45:17;;;;;;;6.40;2.75;;;6.20;80.90;;;;;;4881935;29;20242;-75
2022/02/22 07:47:44;;;;;;;8.65;2.88;;;6.50;79.40;;;;;;4882566;29;20209;-76
2022/02/22 07:50:13;;;;;;;10.43;3.40;;;6.70;77.00;;;;;;4887669;29;20222;-73
2022/02/22 07:52:40;;;;;;;7.80;2.97;;;6.90;73.90;;;;;;4882338;29;20237;-75
2022/02/22 07:55:08;;;;;;;8.10;3.20;;;7.20;72.70;;;;;;4882582;29;20210;-74
2022/02/22 07:57:35;;;;;;;4.80;2.60;;;7.30;70.60;;;;;;4883398;29;20313;-74
2022/02/22 08:00:02;;;;;;;12.35;3.17;;;7.40;68.50;;;;;;4886047;29;20286;-73
2022/02/22 08:02:29;;;;;;;9.70;2.92;;;7.40;68.20;;;;;;4889470;29;20245;-74
2022/02/22 08:04:55;;;;;;;8.55;2.95;;;7.50;68.40;;;;;;4887694;29;20332;-75
2022/02/22 08:07:24;;;;;;;4.70;3.10;;;7.40;66.90;;;;;;4891720;29;20216;-74
2022/02/22 08:09:51;;;;;;;11.80;3.60;;;7.30;67.30;;;;;;4882996;29;20246;-72
2022/02/22 08:12:18;;;;;;;7.57;2.55;;;7.30;67.60;;;;;;4880838;29;20635;-72
2022/02/22 08:14:45;;;;;;;12.52;2.85;;;7.30;67.80;;;;;;4881493;29;20214;-72
2022/02/22 08:17:12;;;;;;;6.03;2.67;;;7.30;67.60;;;;;;4881045;29;20295;-74
2022/02/22 08:19:39;;;;;;;6.57;2.45;;;7.20;67.70;;;;;;4881554;29;20235;-73
2022/02/22 08:22:06;;;;;;;10.35;3.05;;;7.20;68.00;;;;;;4881292;29;20240;-76
2022/02/22 08:24:34;;;;;;;8.00;2.80;;;7.20;68.40;;;;;;4881167;29;20237;-74
2022/02/22 08:27:03;;;;;;;12.32;3.45;;;7.20;68.70;;;;;;4880707;29;20656;-73
2022/02/22 08:29:31;;;;;;;8.52;3.05;;;7.20;68.60;;;;;;4880999;29;20262;-74
2022/02/22 08:31:58;;;;;;;9.52;3.20;;;7.20;68.00;;;;;;4880697;29;20244;-74
2022/02/22 08:34:25;;;;;;;6.90;3.10;;;7.40;68.40;;;;;;4881610;29;20242;-72
2022/02/22 08:36:52;;;;;;;5.65;2.78;;;7.60;68.20;;;;;;4882606;29;20218;-73
2022/02/22 08:39:22;;;;;;;6.80;3.33;;;7.70;66.60;;;;;;4881935;29;20306;-71
2022/02/22 08:41:51;;;;;;;5.22;2.33;;;7.80;66.70;;;;;;4882354;29;20236;-73
2022/02/22 08:44:18;;;;;;;8.20;3.30;;;8.00;65.70;;;;;;4886398;29;20242;-75
2022/02/22 08:46:45;;;;;;;9.15;3.10;;;8.20;64.50;;;;;;4884224;29;20248;-73
2022/02/22 08:49:12;;;;;;;12.68;3.95;;;8.30;63.60;;;;;;4886884;29;20216;-73
2022/02/22 08:51:39;;;;;;;8.40;2.97;;;8.30;62.90;;;;;;4887635;29;20325;-74
2022/02/22 08:54:08;;;;;;;14.82;3.92;;;8.30;62.70;;;;;;4893560;29;20222;-73
2022/02/22 08:56:35;;;;;;;6.47;3.13;;;8.20;63.00;;;;;;4898792;29;20201;-73
2022/02/22 08:59:03;;;;;;;11.57;3.00;;;8.30;62.90;;;;;;4896810;29;20272;-73
2022/02/22 09:01:30;;;;;;;9.18;2.55;;;8.30;63.10;;;;;;4892669;29;20235;-73
2022/02/22 09:03:57;;;;;;;9.20;2.88;;;8.10;63.20;;;;;;4885093;29;20285;-73
2022/02/22 09:06:24;;;;;;;10.85;2.70;;;8.20;64.40;;;;;;4881150;29;20310;-74
2022/02/22 09:08:51;;;;;;;8.30;3.20;;;8.20;63.60;;;;;;4879747;29;20845;-73
2022/02/22 09:11:18;;;;;;;9.50;3.35;;;8.20;63.90;;;;;;4879384;29;20354;-74
2022/02/22 09:13:45;;;;;;;9.52;3.20;;;8.20;63.70;;;;;;4880028;29;20217;-73
2022/02/22 09:16:13;;;;;;;9.60;3.20;;;8.20;64.10;;;;;;4880109;29;20293;-73
2022/02/22 09:18:40;;;;;;;8.13;3.17;;;8.40;63.50;;;;;;4880805;29;20279;-73
2022/02/22 09:21:06;;;;;;;11.27;3.40;;;8.50;62.10;;;;;;4881855;29;20709;-73
2022/02/22 09:23:33;;;;;;;6.55;2.75;;;8.60;62.30;;;;;;4888761;29;20284;-72
2022/02/22 09:26:01;;;;;;;9.50;2.60;;;8.80;61.90;;;;;;4895249;29;20243;-72
2022/02/22 09:28:28;;;;;;;9.57;2.85;;;8.90;60.90;;;;;;4889183;29;20222;-72
2022/02/22 09:30:55;;;;;;;9.45;2.92;;;9.00;60.00;;;;;;4885430;29;20259;-75
2022/02/22 09:33:23;;;;;;;10.88;3.20;;;8.90;60.20;;;;;;4885085;29;20272;-74
2022/02/22 09:35:50;;;;;;;16.33;3.40;;;8.90;60.30;;;;;;4880234;29;20211;-74
2022/02/22 09:38:17;;;;;;;9.00;3.60;;;8.90;60.20;;;;;;4879435;29;20251;-74
2022/02/22 09:40:44;;;;;;;6.43;2.80;;;8.90;60.40;;;;;;4879606;29;20231;-76
2022/02/22 09:43:11;;;;;;;9.35;4.05;;;9.00;60.30;;;;;;4878848;29;20603;-73
2022/02/22 09:45:38;;;;;;;13.57;4.10;;;9.00;59.90;;;;;;4878641;29;20257;-72
2022/02/22 09:48:06;;;;;;;12.07;3.63;;;9.00;59.50;;;;;;4879528;29;20224;-75
2022/02/22 09:50:36;;;;;;;17.38;3.97;;;9.10;58.90;;;;;;4879318;29;20301;-73
2022/02/22 09:53:03;;;;;;;20.17;5.38;;;9.30;59.10;;;;;;4879388;29;20213;-74
2022/02/22 09:55:30;;;;;;;7.30;2.92;;;9.40;59.20;;;;;;4882885;29;20214;-74
2022/02/22 09:57:57;;;;;;;9.82;3.10;;;9.50;59.20;;;;;;4884057;29;20209;-75
2022/02/22 10:00:26;;;;;;;6.93;3.47;;;9.80;57.60;;;;;;4894491;29;20247;-74
2022/02/22 10:02:53;;;;;;;15.18;4.20;;;10.00;55.80;;;;;;4893497;29;20236;-73
2022/02/22 10:05:23;;;;;;;8.30;3.55;;;9.90;56.00;;;;;;4883021;29;20247;-74
2022/02/22 10:07:55;;;;;;;12.25;3.88;;;10.00;55.10;;;;;;4880786;29;20302;-74
2022/02/22 10:10:33;;;;;;;11.27;3.50;;;10.00;54.10;;;;;;4879782;29;20268;-73
2022/02/22 10:13:01;;;;;;;8.70;3.20;;;9.90;55.80;;;;;;4879863;29;20220;-73
2022/02/22 10:15:28;;;;;;;8.82;3.67;;;9.80;56.10;;;;;;4881318;29;20249;-73
2022/02/22 10:17:55;;;;;;;15.82;4.00;;;9.80;55.70;;;;;;4886172;29;20214;-74
2022/02/22 10:20:22;;;;;;;10.38;4.53;;;9.70;56.40;;;;;;4887401;29;20265;-73
2022/02/22 10:22:51;;;;;;;5.88;3.22;;;9.80;55.60;;;;;;4897160;29;20246;-74
2022/02/22 10:25:19;;;;;;;11.77;4.03;;;9.70;55.70;;;;;;4899907;29;20592;-73
2022/02/22 10:27:48;;;;;;;14.98;5.20;;;9.70;55.30;;;;;;4904258;29;20226;-73
2022/02/22 10:30:38;;;;;;;17.45;3.60;;;9.60;55.40;;;;;;4903358;29;20314;-73
2022/02/22 10:33:17;;;;;;;13.38;3.65;;;9.50;55.40;;;;;;4899041;29;20199;-73
2022/02/22 10:35:46;;;;;;;11.57;3.90;;;9.30;56.30;;;;;;4898173;29;20205;-73
2022/02/22 10:38:17;;;;;;;12.20;3.60;;;9.30;56.70;;;;;;4892013;29;20317;-73
2022/02/22 10:40:52;;;;;;;10.05;3.70;;;9.30;56.80;;;;;;4887284;29;20232;-73
2022/02/22 10:43:27;;;;;;;13.82;4.13;;;9.30;57.00;;;;;;4887384;29;20210;-72
2022/02/22 10:45:56;;;;;;;6.90;3.30;;;9.30;56.60;;;;;;4887087;29;20214;-73
2022/02/22 10:48:32;;;;;;;12.68;3.80;;;9.20;57.20;;;;;;4887059;29;20333;-74
2022/02/22 10:51:01;;;;;;;15.13;3.95;;;9.30;56.70;;;;;;4887000;29;20254;-72
2022/02/22 10:53:36;;;;;;;16.52;4.60;;;9.40;57.10;;;;;;4887414;29;20752;-73
2022/02/22 10:56:06;;;;;;;17.73;4.05;;;9.50;57.20;;;;;;4886596;29;20250;-74
2022/02/22 10:58:33;;;;;;;10.35;4.28;;;9.60;56.70;;;;;;4886776;29;20231;-73
2022/02/22 11:01:02;;;;;;;12.30;3.85;;;9.80;56.90;;;;;;4887066;29;20302;-73
2022/02/22 11:03:30;;;;;;;12.20;4.07;;;9.80;56.50;;;;;;4886191;29;20672;-73
2022/02/22 11:05:57;;;;;;;17.15;3.80;;;9.90;56.80;;;;;;4886376;29;20258;-73
2022/02/22 11:08:31;;;;;;;12.27;3.67;;;9.90;56.90;;;;;;4886461;29;20235;-73
2022/02/22 11:11:04;;;;;;;13.82;4.60;;;9.70;57.00;;;;;;4885362;29;20239;-73
2022/02/22 11:13:32;;;;;;;13.93;3.50;;;9.70;56.50;;;;;;4885830;29;20643;-75
2022/02/22 11:16:14;;;;;;;12.70;4.07;;;9.80;55.20;;;;;;4885344;29;20216;-74
2022/02/22 11:18:49;;;;;;;10.98;3.33;;;9.60;53.60;;;;;;4886405;29;20200;-74
2022/02/22 11:21:17;;;;;;;7.60;3.53;;;9.60;54.40;;;;;;4885776;29;20715;-74
2022/02/22 11:23:44;;;;;;;20.08;3.80;;;9.70;55.20;;;;;;4885832;29;20254;-74
2022/02/22 11:26:15;;;;;;;14.93;4.43;;;9.70;54.70;;;;;;4885843;29;20241;-73
2022/02/22 11:28:44;;;;;;;17.77;3.60;;;9.70;54.70;;;;;;4882110;29;20267;-74
2022/02/22 11:31:14;;;;;;;10.85;4.00;;;9.70;54.70;;;;;;4882995;29;20273;-73
2022/02/22 11:33:43;;;;;;;13.95;3.70;;;9.80;54.00;;;;;;4883149;29;20216;-74
2022/02/22 11:36:11;;;;;;;9.23;3.85;;;10.10;53.00;;;;;;4883875;29;20224;-74
2022/02/22 11:38:44;;;;;;;10.90;3.75;;;10.30;51.40;;;;;;4883971;29;20223;-76
2022/02/22 11:41:18;;;;;;;9.70;3.88;;;10.50;50.70;;;;;;4882719;29;20587;-74
2022/02/22 11:43:55;;;;;;;13.70;3.55;;;10.60;49.80;;;;;;4883472;29;20217;-75
2022/02/22 11:46:40;;;;;;;12.43;4.03;;;10.60;49.80;;;;;;4882443;29;20318;-74
2022/02/22 11:49:09;;;;;;;12.20;4.07;;;10.50;49.70;;;;;;4882501;29;20227;-74
2022/02/22 11:51:44;;;;;;;14.55;4.43;;;10.40;49.60;;;;;;4882684;29;20327;-74
2022/02/22 11:54:18;;;;;;;14.23;3.80;;;10.30;49.50;;;;;;4883464;29;20591;-74
2022/02/22 11:56:47;;;;;;;15.13;4.60;;;10.40;49.60;;;;;;4885686;29;20214;-74
2022/02/22 11:59:16;;;;;;;16.13;4.35;;;10.50;49.60;;;;;;4883496;29;20216;-74
2022/02/22 12:01:44;;;;;;;19.55;3.88;;;10.60;49.70;;;;;;4882669;29;20319;-73
2022/02/22 12:04:20;;;;;;;12.23;4.10;;;10.50;49.70;;;;;;4882491;29;20299;-73
2022/02/22 12:06:48;;;;;;;14.23;3.35;;;10.60;49.80;;;;;;4881946;29;20685;-73
2022/02/22 12:09:15;;;;;;;10.00;3.25;;;10.70;49.90;;;;;;4881782;29;20209;-74
2022/02/22 12:11:43;;;;;;;18.73;4.70;;;10.90;49.00;;;;;;4893486;29;20325;-73
2022/02/22 12:14:14;;;;;;;16.65;4.03;;;11.10;48.70;;;;;;4887480;29;20644;-74
2022/02/22 12:16:43;;;;;;;11.25;3.20;;;11.30;48.50;;;;;;4880779;29;20201;-73
2022/02/22 12:19:11;;;;;;;8.25;4.05;;;11.30;47.90;;;;;;4880978;29;20214;-73
2022/02/22 12:21:38;;;;;;;19.48;4.10;;;11.20;47.80;;;;;;4879862;29;20624;-74
2022/02/22 12:24:10;;;;;;;16.27;4.50;;;11.30;48.10;;;;;;4880813;29;20211;-73
2022/02/22 12:26:39;;;;;;;11.98;3.80;;;11.40;48.20;;;;;;4880489;29;20260;-74
2022/02/22 12:29:08;;;;;;;12.73;3.70;;;11.00;48.80;;;;;;4880684;29;20668;-73
2022/02/22 12:31:39;;;;;;;17.65;3.90;;;11.00;49.80;;;;;;4880551;29;20244;-73
2022/02/22 12:34:07;;;;;;;14.45;3.90;;;10.90;49.00;;;;;;4881125;29;20220;-74
2022/02/22 12:36:35;;;;;;;11.55;4.20;;;11.00;50.10;;;;;;4890156;29;20219;-73
2022/02/22 12:39:04;;;;;;;7.03;2.72;;;11.00;49.60;;;;;;4890539;29;20244;-73
2022/02/22 12:41:34;;;;;;;10.85;3.42;;;10.90;50.10;;;;;;4890065;29;20341;-73
2022/02/22 12:44:01;;;;;;;12.95;3.92;;;10.90;49.50;;;;;;4896424;29;20204;-73
2022/02/22 12:46:28;;;;;;;9.55;3.03;;;10.90;49.60;;;;;;4886966;29;20230;-74
2022/02/22 12:48:56;;;;;;;9.75;3.25;;;11.10;49.10;;;;;;4886502;29;20283;-73
2022/02/22 12:51:25;;;;;;;12.27;3.45;;;11.00;48.80;;;;;;4892397;29;20232;-73
2022/02/22 12:54:02;;;;;;;13.02;3.70;;;11.00;48.90;;;;;;4881900;29;20255;-73
2022/02/22 12:56:35;;;;;;;10.57;3.50;;;11.00;48.30;;;;;;4880354;29;20244;-74
2022/02/22 12:59:02;;;;;;;10.80;3.15;;;11.00;47.60;;;;;;4879928;29;20674;-73
2022/02/22 13:01:34;;;;;;;12.60;2.80;;;11.00;48.00;;;;;;4879600;29;20312;-73
2022/02/22 13:04:05;;;;;;;8.52;2.85;;;11.00;47.70;;;;;;4880367;29;20220;-73
2022/02/22 13:06:34;;;;;;;12.00;3.42;;;10.80;47.40;;;;;;4880562;29;20197;-75
2022/02/22 13:09:02;;;;;;;15.20;3.70;;;10.60;48.20;;;;;;4882105;29;20212;-74
2022/02/22 13:11:34;;;;;;;14.60;3.88;;;10.50;48.40;;;;;;4884555;29;20260;-74
2022/02/22 13:14:01;;;;;;;12.73;3.58;;;10.50;48.50;;;;;;4883466;29;20223;-73
2022/02/22 13:16:28;;;;;;;10.95;3.35;;;10.40;48.90;;;;;;4881284;29;20234;-72
2022/02/22 13:18:56;;;;;;;10.65;3.13;;;10.40;48.50;;;;;;4879439;29;20236;-74
2022/02/22 13:21:27;;;;;;;13.48;3.53;;;10.30;48.00;;;;;;4879966;29;20236;-73